sensor_id;sensor_type;location;lat;lon;timestamp;pressure;altitude;pressure_sealevel;temperature;humidity
20115;BME280;10218;42.874;25.320;2023-02-12T00:01:19;98146.84;;;-2.67;100.00
20115;BME280;10218;42.874;25.320;2023-02-12T00:03:47;98147.75;;;-2.88;100.00
20115;BME280;10218;42.874;25.320;2023-02-12T00:06:15;98147.38;;;-2.79;100.00
20115;BME280;10218;42.874;25.320;2023-02-12T00:08:42;98154.38;;;-2.80;100.00
20115;BME280;10218;42.874;25.320;2023-02-12T00:11:18;98137.91;;;-2.82;100.00
20115;BME280;10218;42.874;25.320;2023-02-12T00:13:45;98156.81;;;-2.36;100.00
20115;BME280;10218;42.874;25.320;2023-02-12T00:16:15;98158.94;;;-2.26;100.00
20115;BME280;10218;42.874;25.320;2023-02-12T00:18:44;98143.97;;;-2.03;100.00
20115;BME280;10218;42.874;25.320;2023-02-12T00:21:11;98151.56;;;-2.75;100.00
20115;BME280;10218;42.874;25.320;2023-02-12T00:23:40;98138.16;;;-2.88;100.00
20115;BME280;10218;42.874;25.320;2023-02-12T00:26:09;98141.87;;;-2.73;100.00
20115;BME280;10218;42.874;25.320;2023-02-12T00:28:37;98146.00;;;-2.29;100.00
20115;BME280;10218;42.874;25.320;2023-02-12T00:31:10;98146.44;;;-2.58;100.00
20115;BME280;10218;42.874;25.320;2023-02-12T00:33:38;98152.47;;;-2.37;100.00
20115;BME280;10218;42.874;25.320;2023-02-12T00:36:06;98149.66;;;-2.33;100.00
20115;BME280;10218;42.874;25.320;2023-02-12T00:38:34;98145.25;;;-2.51;100.00
20115;BME280;10218;42.874;25.320;2023-02-12T00:41:02;98150.31;;;-2.67;100.00
20115;BME280;10218;42.874;25.320;2023-02-12T00:43:29;98154.16;;;-2.55;100.00
20115;BME280;10218;42.874;25.320;2023-02-12T00:45:56;98136.59;;;-2.72;100.00
20115;BME280;10218;42.874;25.320;2023-02-12T00:48:25;98151.16;;;-2.66;100.00
20115;BME280;10218;42.874;25.320;2023-02-12T00:50:53;98148.41;;;-2.63;100.00
20115;BME280;10218;42.874;25.320;2023-02-12T00:53:20;98155.53;;;-2.28;100.00
20115;BME280;10218;42.874;25.320;2023-02-12T00:55:47;98144.78;;;-2.22;100.00
20115;BME280;10218;42.874;25.320;2023-02-12T00:58:15;98150.59;;;-2.15;100.00
20115;BME280;10218;42.874;25.320;2023-02-12T01:00:45;98145.22;;;-2.31;100.00
20115;BME280;10218;42.874;25.320;2023-02-12T01:03:12;98147.47;;;-2.42;100.00
20115;BME280;10218;42.874;25.320;2023-02-12T01:05:40;98133.47;;;-2.41;100.00
20115;BME280;10218;42.874;25.320;2023-02-12T01:08:07;98124.03;;;-2.84;100.00
20115;BME280;10218;42.874;25.320;2023-02-12T01:10:36;98143.31;;;-2.66;100.00
20115;BME280;10218;42.874;25.320;2023-02-12T01:13:04;98131.94;;;-2.65;100.00
20115;BME280;10218;42.874;25.320;2023-02-12T01:15:31;98136.19;;;-2.63;100.00
20115;BME280;10218;42.874;25.320;2023-02-12T01:17:58;98134.81;;;-2.71;100.00
20115;BME280;10218;42.874;25.320;2023-02-12T01:20:25;98138.59;;;-2.78;100.00
20115;BME280;10218;42.874;25.320;2023-02-12T01:22:52;98141.13;;;-2.95;100.00
20115;BME280;10218;42.874;25.320;2023-02-12T01:25:19;98134.28;;;-2.99;100.00
20115;BME280;10218;42.874;25.320;2023-02-12T01:27:48;98130.00;;;-3.21;100.00
20115;BME280;10218;42.874;25.320;2023-02-12T01:30:18;98121.34;;;-3.23;100.00
20115;BME280;10218;42.874;25.320;2023-02-12T01:32:49;98114.38;;;-3.02;100.00
20115;BME280;10218;42.874;25.320;2023-02-12T01:35:17;98117.94;;;-3.25;100.00
20115;BME280;10218;42.874;25.320;2023-02-12T01:37:45;98116.16;;;-3.45;100.00
20115;BME280;10218;42.874;25.320;2023-02-12T01:40:14;98115.81;;;-3.35;100.00
20115;BME280;10218;42.874;25.320;2023-02-12T01:42:41;98118.59;;;-3.40;100.00
20115;BME280;10218;42.874;25.320;2023-02-12T01:47:43;98110.59;;;-3.35;100.00
20115;BME280;10218;42.874;25.320;2023-02-12T01:50:14;98102.69;;;-3.14;100.00
20115;BME280;10218;42.874;25.320;2023-02-12T01:52:47;98106.19;;;-2.94;100.00
20115;BME280;10218;42.874;25.320;2023-02-12T01:55:18;98098.56;;;-2.99;100.00
20115;BME280;10218;42.874;25.320;2023-02-12T01:57:47;98108.03;;;-3.17;100.00
20115;BME280;10218;42.874;25.320;2023-02-12T02:00:17;98090.66;;;-3.18;100.00
20115;BME280;10218;42.874;25.320;2023-02-12T02:02:49;98085.81;;;-3.47;100.00
20115;BME280;10218;42.874;25.320;2023-02-12T02:05:30;98090.91;;;-3.44;100.00
20115;BME280;10218;42.874;25.320;2023-02-12T02:08:00;98086.78;;;-3.92;100.00
20115;BME280;10218;42.874;25.320;2023-02-12T02:10:28;98074.72;;;-3.74;100.00
20115;BME280;10218;42.874;25.320;2023-02-12T02:12:56;98085.00;;;-3.49;100.00
20115;BME280;10218;42.874;25.320;2023-02-12T02:15:46;98090.88;;;-3.64;100.00
20115;BME280;10218;42.874;25.320;2023-02-12T02:18:23;98082.16;;;-3.43;100.00
20115;BME280;10218;42.874;25.320;2023-02-12T02:32:54;98083.84;;;-3.62;100.00
20115;BME280;10218;42.874;25.320;2023-02-12T02:35:33;98086.69;;;-3.68;100.00
20115;BME280;10218;42.874;25.320;2023-02-12T02:43:54;98084.97;;;-2.87;100.00
20115;BME280;10218;42.874;25.320;2023-02-12T02:46:36;98082.13;;;-2.82;100.00
20115;BME280;10218;42.874;25.320;2023-02-12T02:49:09;98085.00;;;-2.88;100.00
20115;BME280;10218;42.874;25.320;2023-02-12T02:51:45;98085.69;;;-3.44;100.00
20115;BME280;10218;42.874;25.320;2023-02-12T02:54:20;98083.59;;;-3.36;100.00
20115;BME280;10218;42.874;25.320;2023-02-12T02:56:51;98077.06;;;-3.46;100.00
20115;BME280;10218;42.874;25.320;2023-02-12T02:59:35;98069.94;;;-3.42;100.00
20115;BME280;10218;42.874;25.320;2023-02-12T03:02:14;98079.87;;;-3.51;100.00
20115;BME280;10218;42.874;25.320;2023-02-12T03:04:50;98069.75;;;-3.38;100.00
20115;BME280;10218;42.874;25.320;2023-02-12T03:07:34;98082.00;;;-2.99;100.00
20115;BME280;10218;42.874;25.320;2023-02-12T03:10:17;98078.84;;;-3.06;100.00
20115;BME280;10218;42.874;25.320;2023-02-12T03:12:52;98074.19;;;-3.20;100.00
20115;BME280;10218;42.874;25.320;2023-02-12T03:17:52;98077.94;;;-3.05;100.00
20115;BME280;10218;42.874;25.320;2023-02-12T03:20:27;98085.53;;;-2.80;100.00
20115;BME280;10218;42.874;25.320;2023-02-12T03:23:14;98089.72;;;-2.58;100.00
20115;BME280;10218;42.874;25.320;2023-02-12T03:25:56;98085.66;;;-2.44;100.00
20115;BME280;10218;42.874;25.320;2023-02-12T03:28:29;98078.88;;;-2.30;100.00
20115;BME280;10218;42.874;25.320;2023-02-12T03:36:24;98073.00;;;-2.16;100.00
20115;BME280;10218;42.874;25.320;2023-02-12T03:38:54;98073.28;;;-2.41;100.00
20115;BME280;10218;42.874;25.320;2023-02-12T03:41:29;98076.16;;;-2.47;100.00
20115;BME280;10218;42.874;25.320;2023-02-12T03:44:15;98056.22;;;-2.12;100.00
20115;BME280;10218;42.874;25.320;2023-02-12T03:49:22;98053.88;;;-1.29;100.00
20115;BME280;10218;42.874;25.320;2023-02-12T03:51:53;98046.81;;;-0.46;100.00
20115;BME280;10218;42.874;25.320;2023-02-12T03:54:21;98050.06;;;0.07;100.00
20115;BME280;10218;42.874;25.320;2023-02-12T03:57:19;98059.56;;;0.09;100.00
20115;BME280;10218;42.874;25.320;2023-02-12T03:59:48;98048.19;;;0.24;96.97
20115;BME280;10218;42.874;25.320;2023-02-12T04:02:17;98046.31;;;0.26;100.00
20115;BME280;10218;42.874;25.320;2023-02-12T04:04:45;98048.34;;;0.21;100.00
20115;BME280;10218;42.874;25.320;2023-02-12T04:07:13;98043.03;;;0.07;100.00
20115;BME280;10218;42.874;25.320;2023-02-12T04:09:41;98052.91;;;0.33;98.83
20115;BME280;10218;42.874;25.320;2023-02-12T04:18:06;98050.91;;;0.07;100.00
20115;BME280;10218;42.874;25.320;2023-02-12T04:31:54;98063.72;;;-0.18;100.00
20115;BME280;10218;42.874;25.320;2023-02-12T04:37:01;98077.03;;;0.10;100.00
20115;BME280;10218;42.874;25.320;2023-02-12T04:39:32;98070.75;;;0.13;100.00
20115;BME280;10218;42.874;25.320;2023-02-12T04:42:02;98062.94;;;0.11;100.00
20115;BME280;10218;42.874;25.320;2023-02-12T04:44:31;98071.00;;;0.69;97.12
20115;BME280;10218;42.874;25.320;2023-02-12T04:47:00;98072.09;;;0.95;90.47
20115;BME280;10218;42.874;25.320;2023-02-12T04:49:27;98064.63;;;1.46;80.16
20115;BME280;10218;42.874;25.320;2023-02-12T04:51:54;98067.25;;;1.60;76.40
20115;BME280;10218;42.874;25.320;2023-02-12T04:54:22;98065.09;;;2.22;66.76
20115;BME280;10218;42.874;25.320;2023-02-12T04:56:50;98073.19;;;1.78;74.21
20115;BME280;10218;42.874;25.320;2023-02-12T04:59:18;98068.78;;;2.05;70.08
20115;BME280;10218;42.874;25.320;2023-02-12T05:01:45;98070.09;;;2.39;66.95
20115;BME280;10218;42.874;25.320;2023-02-12T05:04:14;98075.66;;;2.48;63.75
20115;BME280;10218;42.874;25.320;2023-02-12T05:06:42;98079.97;;;2.49;66.37
20115;BME280;10218;42.874;25.320;2023-02-12T05:09:16;98080.50;;;2.81;61.29
20115;BME280;10218;42.874;25.320;2023-02-12T05:11:43;98092.66;;;2.30;69.09
20115;BME280;10218;42.874;25.320;2023-02-12T05:14:11;98097.78;;;2.46;72.64
20115;BME280;10218;42.874;25.320;2023-02-12T05:16:38;98098.72;;;2.18;75.27
20115;BME280;10218;42.874;25.320;2023-02-12T05:19:05;98107.84;;;1.98;83.22
20115;BME280;10218;42.874;25.320;2023-02-12T05:21:36;98104.56;;;1.95;81.80
20115;BME280;10218;42.874;25.320;2023-02-12T05:24:04;98115.03;;;1.96;84.81
20115;BME280;10218;42.874;25.320;2023-02-12T05:26:31;98131.22;;;1.90;87.09
20115;BME280;10218;42.874;25.320;2023-02-12T05:28:59;98138.94;;;1.79;81.21
20115;BME280;10218;42.874;25.320;2023-02-12T05:31:26;98141.94;;;1.59;84.54
20115;BME280;10218;42.874;25.320;2023-02-12T05:33:53;98137.78;;;1.83;87.60
20115;BME280;10218;42.874;25.320;2023-02-12T05:36:22;98138.00;;;1.66;89.18
20115;BME280;10218;42.874;25.320;2023-02-12T05:38:51;98136.50;;;1.90;77.65
20115;BME280;10218;42.874;25.320;2023-02-12T05:41:21;98142.78;;;2.16;79.86
20115;BME280;10218;42.874;25.320;2023-02-12T05:43:49;98141.56;;;1.79;81.86
20115;BME280;10218;42.874;25.320;2023-02-12T05:46:20;98151.81;;;1.84;79.50
20115;BME280;10218;42.874;25.320;2023-02-12T05:48:47;98143.84;;;1.71;83.45
20115;BME280;10218;42.874;25.320;2023-02-12T05:51:18;98156.06;;;1.86;92.34
20115;BME280;10218;42.874;25.320;2023-02-12T05:53:48;98157.00;;;1.71;92.04
20115;BME280;10218;42.874;25.320;2023-02-12T05:56:24;98156.59;;;1.49;89.16
20115;BME280;10218;42.874;25.320;2023-02-12T05:58:54;98151.38;;;1.77;84.95
20115;BME280;10218;42.874;25.320;2023-02-12T06:01:26;98164.91;;;1.85;87.85
20115;BME280;10218;42.874;25.320;2023-02-12T06:03:54;98161.50;;;1.69;93.85
20115;BME280;10218;42.874;25.320;2023-02-12T06:06:21;98163.69;;;1.62;88.30
20115;BME280;10218;42.874;25.320;2023-02-12T06:08:50;98171.97;;;1.99;93.95
20115;BME280;10218;42.874;25.320;2023-02-12T06:11:17;98159.72;;;1.84;87.90
20115;BME280;10218;42.874;25.320;2023-02-12T06:13:46;98156.56;;;1.93;88.22
20115;BME280;10218;42.874;25.320;2023-02-12T06:18:44;98177.16;;;1.86;92.81
20115;BME280;10218;42.874;25.320;2023-02-12T06:21:11;98185.25;;;1.97;93.79
20115;BME280;10218;42.874;25.320;2023-02-12T06:23:38;98183.16;;;1.60;100.00
20115;BME280;10218;42.874;25.320;2023-02-12T06:26:05;98186.56;;;1.90;95.74
20115;BME280;10218;42.874;25.320;2023-02-12T06:28:33;98179.00;;;1.98;94.85
20115;BME280;10218;42.874;25.320;2023-02-12T06:31:00;98180.91;;;2.10;96.03
20115;BME280;10218;42.874;25.320;2023-02-12T06:33:28;98183.34;;;1.71;100.00
20115;BME280;10218;42.874;25.320;2023-02-12T06:35:55;98190.41;;;1.85;100.00
20115;BME280;10218;42.874;25.320;2023-02-12T06:38:23;98201.87;;;1.84;100.00
20115;BME280;10218;42.874;25.320;2023-02-12T06:40:50;98207.47;;;2.07;95.99
20115;BME280;10218;42.874;25.320;2023-02-12T06:43:17;98205.56;;;2.09;99.03
20115;BME280;10218;42.874;25.320;2023-02-12T06:45:44;98211.53;;;2.13;100.00
20115;BME280;10218;42.874;25.320;2023-02-12T06:48:11;98206.44;;;2.79;81.51
20115;BME280;10218;42.874;25.320;2023-02-12T06:50:38;98205.88;;;2.60;89.30
20115;BME280;10218;42.874;25.320;2023-02-12T06:53:05;98215.66;;;2.72;84.38
20115;BME280;10218;42.874;25.320;2023-02-12T06:55:33;98213.62;;;2.49;92.99
20115;BME280;10218;42.874;25.320;2023-02-12T06:58:00;98209.37;;;2.61;97.90
20115;BME280;10218;42.874;25.320;2023-02-12T07:00:27;98189.63;;;2.53;94.71
20115;BME280;10218;42.874;25.320;2023-02-12T07:02:55;98212.97;;;2.86;88.05
20115;BME280;10218;42.874;25.320;2023-02-12T07:05:23;98214.91;;;2.70;100.00
20115;BME280;10218;42.874;25.320;2023-02-12T07:07:50;98212.41;;;2.54;100.00
20115;BME280;10218;42.874;25.320;2023-02-12T07:10:18;98227.31;;;2.82;100.00
20115;BME280;10218;42.874;25.320;2023-02-12T07:12:45;98235.03;;;2.58;100.00
20115;BME280;10218;42.874;25.320;2023-02-12T07:15:12;98233.50;;;2.95;100.00
20115;BME280;10218;42.874;25.320;2023-02-12T07:17:40;98226.84;;;3.17;100.00
20115;BME280;10218;42.874;25.320;2023-02-12T07:20:08;98221.47;;;3.18;93.50
20115;BME280;10218;42.874;25.320;2023-02-12T07:22:35;98225.69;;;3.21;96.79
20115;BME280;10218;42.874;25.320;2023-02-12T07:25:03;98219.28;;;3.25;89.74
20115;BME280;10218;42.874;25.320;2023-02-12T07:27:30;98227.41;;;4.12;79.71
20115;BME280;10218;42.874;25.320;2023-02-12T07:29:57;98232.81;;;4.23;73.33
20115;BME280;10218;42.874;25.320;2023-02-12T07:32:25;98223.81;;;3.87;79.50
20115;BME280;10218;42.874;25.320;2023-02-12T07:34:52;98246.44;;;3.92;71.81
20115;BME280;10218;42.874;25.320;2023-02-12T07:37:19;98234.50;;;4.37;69.11
20115;BME280;10218;42.874;25.320;2023-02-12T07:39:49;98234.72;;;4.21;68.07
20115;BME280;10218;42.874;25.320;2023-02-12T07:42:16;98242.03;;;4.05;66.68
20115;BME280;10218;42.874;25.320;2023-02-12T07:44:47;98236.34;;;4.60;65.17
20115;BME280;10218;42.874;25.320;2023-02-12T07:47:15;98239.78;;;4.37;65.48
20115;BME280;10218;42.874;25.320;2023-02-12T07:49:42;98240.37;;;5.02;61.03
20115;BME280;10218;42.874;25.320;2023-02-12T07:52:09;98246.66;;;4.88;59.08
20115;BME280;10218;42.874;25.320;2023-02-12T07:54:39;98239.78;;;5.22;58.05
20115;BME280;10218;42.874;25.320;2023-02-12T07:57:06;98244.31;;;5.20;58.11
20115;BME280;10218;42.874;25.320;2023-02-12T07:59:33;98244.25;;;4.85;58.69
20115;BME280;10218;42.874;25.320;2023-02-12T08:02:00;98249.19;;;5.26;58.44
20115;BME280;10218;42.874;25.320;2023-02-12T08:04:27;98240.75;;;5.08;59.66
20115;BME280;10218;42.874;25.320;2023-02-12T08:06:55;98239.34;;;5.39;58.40
20115;BME280;10218;42.874;25.320;2023-02-12T08:09:26;98236.38;;;5.79;55.07
20115;BME280;10218;42.874;25.320;2023-02-12T08:11:53;98250.81;;;5.75;55.01
20115;BME280;10218;42.874;25.320;2023-02-12T08:14:21;98248.53;;;5.94;55.06
20115;BME280;10218;42.874;25.320;2023-02-12T08:16:49;98257.84;;;6.22;52.92
20115;BME280;10218;42.874;25.320;2023-02-12T08:19:17;98250.63;;;6.46;52.71
20115;BME280;10218;42.874;25.320;2023-02-12T08:21:49;98247.34;;;6.31;52.51
20115;BME280;10218;42.874;25.320;2023-02-12T08:24:17;98246.03;;;6.81;52.65
20115;BME280;10218;42.874;25.320;2023-02-12T08:26:44;98265.75;;;7.22;51.61
20115;BME280;10218;42.874;25.320;2023-02-12T08:29:14;98259.69;;;6.66;52.16
20115;BME280;10218;42.874;25.320;2023-02-12T08:31:44;98258.94;;;6.30;52.52
20115;BME280;10218;42.874;25.320;2023-02-12T08:34:20;98262.09;;;6.47;53.50
20115;BME280;10218;42.874;25.320;2023-02-12T08:36:49;98270.56;;;5.94;53.65
20115;BME280;10218;42.874;25.320;2023-02-12T08:39:17;98268.06;;;6.15;52.83
20115;BME280;10218;42.874;25.320;2023-02-12T08:41:45;98277.66;;;6.62;52.60
20115;BME280;10218;42.874;25.320;2023-02-12T08:44:13;98280.03;;;6.21;52.70
20115;BME280;10218;42.874;25.320;2023-02-12T08:46:46;98279.28;;;6.08;52.76
20115;BME280;10218;42.874;25.320;2023-02-12T08:49:16;98289.25;;;6.61;51.02
20115;BME280;10218;42.874;25.320;2023-02-12T08:51:47;98286.31;;;6.31;52.80
20115;BME280;10218;42.874;25.320;2023-02-12T08:54:17;98293.25;;;6.89;50.60
20115;BME280;10218;42.874;25.320;2023-02-12T08:56:45;98287.66;;;7.25;49.87
20115;BME280;10218;42.874;25.320;2023-02-12T08:59:13;98293.34;;;7.21;50.30
20115;BME280;10218;42.874;25.320;2023-02-12T09:01:41;98283.63;;;7.74;48.99
20115;BME280;10218;42.874;25.320;2023-02-12T09:04:15;98282.56;;;9.39;45.36
20115;BME280;10218;42.874;25.320;2023-02-12T09:06:45;98284.94;;;9.33;44.94
20115;BME280;10218;42.874;25.320;2023-02-12T09:09:13;98281.84;;;9.37;44.66
20115;BME280;10218;42.874;25.320;2023-02-12T09:11:40;98291.06;;;8.53;45.01
20115;BME280;10218;42.874;25.320;2023-02-12T09:14:11;98290.81;;;8.87;44.51
20115;BME280;10218;42.874;25.320;2023-02-12T09:16:38;98280.22;;;9.75;44.25
20115;BME280;10218;42.874;25.320;2023-02-12T09:19:07;98283.53;;;9.29;44.85
20115;BME280;10218;42.874;25.320;2023-02-12T09:21:34;98287.66;;;9.81;43.44
20115;BME280;10218;42.874;25.320;2023-02-12T09:24:02;98292.59;;;10.24;43.20
20115;BME280;10218;42.874;25.320;2023-02-12T09:26:29;98286.09;;;10.46;41.92
20115;BME280;10218;42.874;25.320;2023-02-12T09:28:57;98285.37;;;11.27;40.46
20115;BME280;10218;42.874;25.320;2023-02-12T09:31:27;98282.19;;;10.31;41.95
20115;BME280;10218;42.874;25.320;2023-02-12T09:34:04;98284.63;;;10.70;41.41
20115;BME280;10218;42.874;25.320;2023-02-12T09:36:32;98283.19;;;10.20;41.81
20115;BME280;10218;42.874;25.320;2023-02-12T09:39:00;98290.00;;;10.61;41.47
20115;BME280;10218;42.874;25.320;2023-02-12T09:44:05;98301.63;;;12.75;39.06
20115;BME280;10218;42.874;25.320;2023-02-12T09:49:42;98305.91;;;9.66;41.07
20115;BME280;10218;42.874;25.320;2023-02-12T09:52:20;98290.81;;;12.33;38.33
20115;BME280;10218;42.874;25.320;2023-02-12T09:54:49;98292.44;;;12.52;37.25
20115;BME280;10218;42.874;25.320;2023-02-12T09:57:24;98307.56;;;12.35;37.70
20115;BME280;10218;42.874;25.320;2023-02-12T10:00:03;98295.75;;;13.32;36.23
20115;BME280;10218;42.874;25.320;2023-02-12T10:02:34;98299.38;;;12.37;38.27
20115;BME280;10218;42.874;25.320;2023-02-12T10:05:03;98304.22;;;13.53;36.67
20115;BME280;10218;42.874;25.320;2023-02-12T10:13:26;98301.81;;;12.48;36.51
20115;BME280;10218;42.874;25.320;2023-02-12T10:28:51;98317.84;;;12.22;37.90
20115;BME280;10218;42.874;25.320;2023-02-12T10:31:28;98313.69;;;12.10;38.04
20115;BME280;10218;42.874;25.320;2023-02-12T10:33:57;98305.16;;;14.02;35.92
20115;BME280;10218;42.874;25.320;2023-02-12T10:36:43;98330.47;;;10.76;38.58
20115;BME280;10218;42.874;25.320;2023-02-12T10:39:35;98324.19;;;10.09;40.81
20115;BME280;10218;42.874;25.320;2023-02-12T10:44:49;98331.09;;;10.31;41.31
20115;BME280;10218;42.874;25.320;2023-02-12T10:47:19;98335.34;;;12.34;38.58
20115;BME280;10218;42.874;25.320;2023-02-12T10:49:59;98328.78;;;12.29;39.26
20115;BME280;10218;42.874;25.320;2023-02-12T10:52:46;98338.78;;;12.44;37.16
20115;BME280;10218;42.874;25.320;2023-02-12T10:55:31;98328.66;;;12.56;39.61
20115;BME280;10218;42.874;25.320;2023-02-12T10:58:01;98343.03;;;12.73;37.23
20115;BME280;10218;42.874;25.320;2023-02-12T11:00:35;98339.25;;;12.40;37.50
20115;BME280;10218;42.874;25.320;2023-02-12T11:05:38;98345.16;;;11.90;38.69
20115;BME280;10218;42.874;25.320;2023-02-12T11:08:09;98348.81;;;13.38;37.28
20115;BME280;10218;42.874;25.320;2023-02-12T11:10:52;98351.41;;;14.30;35.94
20115;BME280;10218;42.874;25.320;2023-02-12T11:13:25;98347.47;;;13.92;36.26
20115;BME280;10218;42.874;25.320;2023-02-12T11:15:53;98359.34;;;13.05;36.74
20115;BME280;10218;42.874;25.320;2023-02-12T11:18:26;98358.78;;;12.76;37.65
20115;BME280;10218;42.874;25.320;2023-02-12T11:20:59;98350.84;;;15.78;34.39
20115;BME280;10218;42.874;25.320;2023-02-12T11:23:34;98351.47;;;14.46;34.18
20115;BME280;10218;42.874;25.320;2023-02-12T11:28:57;98359.75;;;12.93;36.74
20115;BME280;10218;42.874;25.320;2023-02-12T11:31:33;98351.09;;;14.73;35.33
20115;BME280;10218;42.874;25.320;2023-02-12T11:34:09;98360.47;;;15.18;35.33
20115;BME280;10218;42.874;25.320;2023-02-12T11:36:51;98343.59;;;16.10;32.40
20115;BME280;10218;42.874;25.320;2023-02-12T11:39:34;98360.97;;;13.58;35.83
20115;BME280;10218;42.874;25.320;2023-02-12T11:42:05;98356.72;;;12.26;37.46
20115;BME280;10218;42.874;25.320;2023-02-12T11:44:52;98364.28;;;12.31;38.41
20115;BME280;10218;42.874;25.320;2023-02-12T11:47:23;98360.94;;;12.29;38.62
20115;BME280;10218;42.874;25.320;2023-02-12T11:50:07;98376.72;;;11.59;39.27
20115;BME280;10218;42.874;25.320;2023-02-12T11:52:36;98372.19;;;11.42;39.75
20115;BME280;10218;42.874;25.320;2023-02-12T11:55:24;98368.84;;;12.74;38.82
20115;BME280;10218;42.874;25.320;2023-02-12T11:57:54;98370.87;;;12.80;37.11
20115;BME280;10218;42.874;25.320;2023-02-12T12:00:36;98370.06;;;11.64;38.69
20115;BME280;10218;42.874;25.320;2023-02-12T12:03:22;98375.16;;;11.67;39.61
20115;BME280;10218;42.874;25.320;2023-02-12T12:05:57;98372.84;;;11.44;40.98
20115;BME280;10218;42.874;25.320;2023-02-12T12:08:35;98378.19;;;11.17;40.87
20115;BME280;10218;42.874;25.320;2023-02-12T12:13:58;98370.72;;;13.67;37.21
20115;BME280;10218;42.874;25.320;2023-02-12T12:19:34;98380.00;;;13.73;36.58
20115;BME280;10218;42.874;25.320;2023-02-12T12:25:26;98388.34;;;15.41;33.79
20115;BME280;10218;42.874;25.320;2023-02-12T12:27:57;98382.09;;;14.03;35.66
20115;BME280;10218;42.874;25.320;2023-02-12T12:41:32;98391.00;;;15.57;34.89
20115;BME280;10218;42.874;25.320;2023-02-12T12:52:44;98373.78;;;14.38;36.14
20115;BME280;10218;42.874;25.320;2023-02-12T13:15:02;98403.69;;;9.37;44.59
20115;BME280;10218;42.874;25.320;2023-02-12T13:18:08;98404.41;;;9.09;45.73
20115;BME280;10218;42.874;25.320;2023-02-12T13:23:45;98412.09;;;8.61;45.35
20115;BME280;10218;42.874;25.320;2023-02-12T13:26:36;98408.31;;;8.84;45.16
20115;BME280;10218;42.874;25.320;2023-02-12T13:29:27;98408.81;;;8.68;46.28
20115;BME280;10218;42.874;25.320;2023-02-12T13:32:04;98426.81;;;7.13;48.71
20115;BME280;10218;42.874;25.320;2023-02-12T13:34:34;98429.81;;;8.18;47.98
20115;BME280;10218;42.874;25.320;2023-02-12T13:37:05;98440.28;;;7.88;48.67
20115;BME280;10218;42.874;25.320;2023-02-12T13:39:40;98443.97;;;7.76;48.91
20115;BME280;10218;42.874;25.320;2023-02-12T13:42:19;98437.69;;;7.55;49.05
20115;BME280;10218;42.874;25.320;2023-02-12T13:47:57;98444.00;;;7.20;48.90
20115;BME280;10218;42.874;25.320;2023-02-12T13:53:55;98451.09;;;7.42;49.46
20115;BME280;10218;42.874;25.320;2023-02-12T13:56:40;98460.13;;;7.84;49.13
20115;BME280;10218;42.874;25.320;2023-02-12T14:02:25;98462.59;;;7.43;49.23
20115;BME280;10218;42.874;25.320;2023-02-12T14:04:55;98479.38;;;7.77;49.14
20115;BME280;10218;42.874;25.320;2023-02-12T14:07:45;98482.25;;;7.07;51.42
20115;BME280;10218;42.874;25.320;2023-02-12T14:11:02;98483.03;;;7.31;51.00
20115;BME280;10218;42.874;25.320;2023-02-12T14:13:24;98488.91;;;7.23;51.28
20115;BME280;10218;42.874;25.320;2023-02-12T14:15:55;98494.84;;;7.27;51.60
20115;BME280;10218;42.874;25.320;2023-02-12T14:18:35;98489.03;;;6.76;53.61
20115;BME280;10218;42.874;25.320;2023-02-12T14:23:40;98503.22;;;6.87;54.07
20115;BME280;10218;42.874;25.320;2023-02-12T14:26:17;98508.22;;;7.03;54.05
20115;BME280;10218;42.874;25.320;2023-02-12T14:28:52;98524.50;;;6.40;56.62
20115;BME280;10218;42.874;25.320;2023-02-12T14:39:28;98531.75;;;6.14;58.56
20115;BME280;10218;42.874;25.320;2023-02-12T14:47:08;98543.44;;;6.35;60.09
20115;BME280;10218;42.874;25.320;2023-02-12T14:49:50;98537.16;;;6.13;60.77
20115;BME280;10218;42.874;25.320;2023-02-12T14:52:25;98544.81;;;6.65;59.11
20115;BME280;10218;42.874;25.320;2023-02-12T14:55:02;98550.53;;;5.86;63.64
20115;BME280;10218;42.874;25.320;2023-02-12T14:57:38;98558.63;;;6.33;62.72
20115;BME280;10218;42.874;25.320;2023-02-12T15:05:19;98572.41;;;6.02;68.91
20115;BME280;10218;42.874;25.320;2023-02-12T15:08:02;98573.47;;;5.99;68.38
20115;BME280;10218;42.874;25.320;2023-02-12T15:10:39;98587.22;;;6.17;68.66
20115;BME280;10218;42.874;25.320;2023-02-12T15:13:22;98582.50;;;5.72;72.54
20115;BME280;10218;42.874;25.320;2023-02-12T15:15:56;98598.00;;;5.78;76.60
20115;BME280;10218;42.874;25.320;2023-02-12T15:18:54;98591.97;;;5.88;71.70
20115;BME280;10218;42.874;25.320;2023-02-12T15:26:31;98606.34;;;5.84;73.50
20115;BME280;10218;42.874;25.320;2023-02-12T15:28:59;98611.25;;;5.52;77.74
20115;BME280;10218;42.874;25.320;2023-02-12T15:31:28;98617.59;;;5.75;77.14
20115;BME280;10218;42.874;25.320;2023-02-12T15:33:59;98612.41;;;5.36;84.49
20115;BME280;10218;42.874;25.320;2023-02-12T15:36:29;98622.81;;;5.51;82.20
20115;BME280;10218;42.874;25.320;2023-02-12T15:39:04;98625.97;;;5.56;79.89
20115;BME280;10218;42.874;25.320;2023-02-12T15:41:38;98630.50;;;5.29;87.26
20115;BME280;10218;42.874;25.320;2023-02-12T15:49:34;98650.16;;;5.00;87.37
20115;BME280;10218;42.874;25.320;2023-02-12T15:52:07;98641.25;;;5.01;88.12
20115;BME280;10218;42.874;25.320;2023-02-12T15:54:37;98651.50;;;5.32;87.03
20115;BME280;10218;42.874;25.320;2023-02-12T15:57:19;98658.94;;;5.40;82.63
20115;BME280;10218;42.874;25.320;2023-02-12T15:59:51;98667.34;;;5.07;84.31
20115;BME280;10218;42.874;25.320;2023-02-12T16:02:24;98677.34;;;5.16;83.79
20115;BME280;10218;42.874;25.320;2023-02-12T16:04:52;98678.38;;;5.13;87.73
20115;BME280;10218;42.874;25.320;2023-02-12T16:07:19;98679.62;;;5.08;89.07
20115;BME280;10218;42.874;25.320;2023-02-12T16:09:47;98683.63;;;5.01;90.71
20115;BME280;10218;42.874;25.320;2023-02-12T16:12:19;98680.44;;;4.69;95.32
20115;BME280;10218;42.874;25.320;2023-02-12T16:14:55;98700.53;;;5.12;92.35